Aérodrome :
LOGIN :

S'inscrire | Disclaimer

   EN    FR    IT 

 










Légende :    VFR   VFR Marginal   IFR   IFR Intensif   IFR Très Intensif
Visi : 
Plafond : 
>= 8 km
>= 3000ft
5 à 8 km
1000 à 3000 ft
1500m à 5 km
500 à 1000 ft
800 à 1500m
200 à 500 ft
< 800m
< 200 ft
Symboles :   Orages  Brouillard  Fortes neiges  Fortes précipitations  Vent > 20 kt
SIGMETs :   Divers  Orages  Givrage  Turbulence  Onde Orograph.  Cendres Volcan.






- Altitude de l'aérodrome : 121 ft
- Code IATA : HUY


EGNJ - Humberside

DERNIER METAR :
  • 232120Z AUTO 26009KT 9999 RA BKN004/// OVC032/// 11/11 Q0994

METARs EXPIRÉS :
  • 232050Z AUTO 27008KT 9999 RA BKN005/// BKN008/// OVC031/// 11/11 Q0995
  • 232020Z AUTO 29007KT 9999 BKN025/// OVC030/// 11/11 Q0995 RERA
  • 231950Z AUTO 29011KT 5000 -DZ FEW005/// BKN021/// BKN027/// 11/11 Q0995
  • 231920Z AUTO 30012KT 9000 BKN004/// OVC017/// 11/11 Q0995
  • 231850Z AUTO 29011KT 9999 BKN004/// OVC018/// 12/11 Q0995

TAF TAF EGNJ
Valide du 23 à 21h jusqu'au 24 à 06h UTC


232000Z 2321/2406 30010KT 9999 BKN030
TEMPO 2321/2403 6000 RA BKN010
PROB30
TEMPO 2321/2324 4000 +RA BKN003
BECMG 2400/2403 20004KT
ATIS : +44 1652 682 020



MET'MAP, la Météo Aéronautique d'un coup d'oeil ! - Copyright ORBIFLY Décembre 2007 - Disclaimer

ORBIFLY MET'MAP TEAM :

Programmation & Développement : Alexandra Zaïnal
Sur une idée originale de : Baudouin d'Aumeries
Assistance à la programmation : Marc-Olivier Méhu
Soutien technique & logistique : Manuel Goepfert

Contact : metmap@orbifly.com




SOURCES & CREDITS :

   NOAA